Terminal Aerodrome Forecast
Issued by NWS

Home | Current Version | Previous Version | Text Only | Print | Product List | Glossary On
Versions: 1 2 3 4 5 6 7 8 9 10 11 12 13 14 15 16 17 18 19 20 21
633
FTUS43 KAPX 181120
TAFMBL
TAF
KMBL 181120Z 1812/1912 25004KT P6SM SCT250
     FM181800 17009KT P6SM BKN150
     FM182000 17011G22KT P6SM BKN200
     FM190000 17013G24KT P6SM BKN200 WS020/19050KT
     FM190800 19009KT P6SM SCT200 WS020/21045KT
     FM190900 19007KT P6SM BKN150=

USA.gov is the U.S. government's official web portal to all federal, state and local government web resources and services.